Time;durP1;ratioP1;P1;durP2;ratioP2;P2;SDS_P1;SDS_P2;PMS_P1;PMS_P2;Temp;Humidity;BMP_temperature;BMP_pressure;BME280_temperature;BME280_humidity;BME280_pressure;Samples;Min_cycle;Max_cycle;Signal;HPM_P1;HPM_P2
2022/03/18 00:10:15;;;;;;;15.85;6.28;;;;;;;3.31;63.85;101948.19;10309278;28;20517;-74
2022/03/18 00:15:30;;;;;;;16.92;7.60;;;;;;;3.26;64.67;101953.34;10291026;28;20133;-75
2022/03/18 00:20:31;;;;;;;18.30;6.60;;;;;;;3.36;63.72;101951.63;10290878;28;20137;-74
2022/03/18 00:25:33;;;;;;;18.27;6.22;;;;;;;3.35;63.79;101961.16;10288825;28;20438;-74
2022/03/18 00:30:35;;;;;;;15.05;6.22;;;;;;;3.30;63.67;101955.09;10289709;28;20058;-75
2022/03/18 00:35:37;;;;;;;18.00;6.07;;;;;;;3.21;63.90;101962.84;10303698;28;20136;-74
2022/03/18 00:40:38;;;;;;;12.77;5.50;;;;;;;3.14;64.42;101963.66;10308010;28;20085;-74
2022/03/18 00:45:40;;;;;;;14.30;5.93;;;;;;;3.16;64.05;101961.06;10302063;28;20053;-75
2022/03/18 00:56:30;;;;;;;11.70;5.88;;;;;;;3.05;64.10;101950.69;10309087;28;20050;-75
2022/03/18 01:01:33;;;;;;;17.23;6.07;;;;;;;2.97;64.50;101961.03;10304702;28;20137;-74
2022/03/18 01:06:35;;;;;;;15.95;6.13;;;;;;;2.96;64.29;101961.91;10304134;28;20061;-74
2022/03/18 01:11:37;;;;;;;14.60;6.15;;;;;;;2.85;64.44;101954.94;10305944;28;20500;-74
2022/03/18 01:16:38;;;;;;;13.68;5.63;;;;;;;2.77;64.72;101965.25;10306878;28;20077;-74
2022/03/18 01:21:42;;;;;;;15.50;5.97;;;;;;;2.82;64.70;101965.28;10284327;28;20050;-74
2022/03/18 01:26:56;;;;;;;15.80;6.38;;;;;;;2.73;65.28;101966.09;10305011;28;20109;-74
2022/03/18 01:31:58;;;;;;;15.95;6.75;;;;;;;2.70;64.58;101967.81;10305399;28;20503;-74
2022/03/18 01:37:00;;;;;;;16.33;6.57;;;;;;;2.71;64.97;101969.53;10285264;28;20060;-74
2022/03/18 01:42:02;;;;;;;16.35;6.30;;;;;;;2.65;64.54;101975.53;10303467;28;20233;-74
2022/03/18 01:47:04;;;;;;;17.77;6.75;;;;;;;2.59;64.90;101979.81;10304513;28;20053;-74
2022/03/18 01:52:08;;;;;;;16.33;6.90;;;;;;;2.57;64.77;101977.22;10305897;28;20163;-75
2022/03/18 01:57:12;;;;;;;19.50;7.10;;;;;;;2.50;64.61;101977.19;10306305;28;20177;-74
2022/03/18 02:02:15;;;;;;;18.20;7.00;;;;;;;2.47;64.51;101977.16;10287027;28;20141;-74
2022/03/18 02:07:17;;;;;;;15.18;7.00;;;;;;;2.45;65.07;101979.72;10286650;28;20051;-75
2022/03/18 02:12:19;;;;;;;17.33;7.25;;;;;;;2.45;64.91;101977.16;10286260;28;20074;-74
2022/03/18 02:17:21;;;;;;;17.55;7.85;;;;;;;2.40;64.79;101978.81;10302194;28;20050;-74
2022/03/18 02:22:25;;;;;;;18.25;6.80;;;;;;;2.35;64.77;101988.28;10301854;28;20660;-74
2022/03/18 02:27:27;;;;;;;15.70;7.75;;;;;;;2.27;64.67;101989.06;10302415;28;20057;-74
2022/03/18 02:32:30;;;;;;;20.75;8.25;;;;;;;2.28;65.00;101993.38;10301977;28;20141;-74
2022/03/18 02:37:31;;;;;;;15.65;8.10;;;;;;;2.26;64.97;101998.53;10301730;28;20567;-74
2022/03/18 02:42:34;;;;;;;19.67;8.65;;;;;;;2.20;65.01;101996.78;10301692;28;20522;-75
2022/03/18 02:47:37;;;;;;;19.75;7.60;;;;;;;2.12;65.24;101995.00;10301217;28;20141;-74
2022/03/18 02:52:39;;;;;;;15.23;7.00;;;;;;;2.13;65.14;101999.31;10297248;28;20054;-74
2022/03/18 02:57:41;;;;;;;16.10;7.88;;;;;;;2.15;65.11;102005.34;10303599;28;20992;-75
2022/03/18 03:02:43;;;;;;;22.27;9.98;;;;;;;2.01;65.07;102006.97;10306624;28;20058;-74
2022/03/18 03:08:00;;;;;;;19.58;9.50;;;;;;;1.95;65.05;102020.66;10310181;28;20109;-74
2022/03/18 03:13:05;;;;;;;24.27;8.25;;;;;;;1.90;65.17;102026.63;10306663;28;20563;-74
2022/03/18 03:18:07;;;;;;;19.45;8.90;;;;;;;1.81;65.28;102034.28;10309583;28;20580;-75
2022/03/18 03:23:09;;;;;;;18.65;8.20;;;;;;;1.86;65.35;102037.78;10309940;28;20130;-74
2022/03/18 03:28:11;;;;;;;15.43;7.28;;;;;;;1.86;65.29;102048.09;10315934;28;20133;-75
2022/03/18 03:33:13;;;;;;;20.45;8.55;;;;;;;1.78;65.30;102054.91;10319069;28;20468;-75
2022/03/18 03:38:15;;;;;;;19.05;7.88;;;;;;;1.72;65.40;102062.59;10315807;28;20050;-75
2022/03/18 03:43:16;;;;;;;17.92;8.70;;;;;;;1.63;65.60;102065.06;10316341;28;20152;-75
2022/03/18 03:48:18;;;;;;;20.02;8.15;;;;;;;1.63;65.58;102072.78;10317822;28;20516;-75
2022/03/18 03:53:20;;;;;;;18.20;8.02;;;;;;;1.58;65.52;102075.34;10317764;28;20461;-75
2022/03/18 03:58:22;;;;;;;21.52;8.88;;;;;;;1.58;65.57;102077.06;10319227;28;20156;-75
2022/03/18 04:03:23;;;;;;;15.85;7.20;;;;;;;1.58;65.48;102082.22;10316230;28;20130;-75
2022/03/18 04:08:25;;;;;;;15.45;7.65;;;;;;;1.55;65.78;102085.63;10296894;28;20050;-75
2022/03/18 04:13:27;;;;;;;21.08;9.00;;;;;;;1.50;65.36;102089.88;10310634;28;20146;-75
2022/03/18 04:18:29;;;;;;;14.75;7.30;;;;;;;1.40;65.79;102100.91;10311739;28;20186;-75
2022/03/18 04:23:30;;;;;;;18.40;7.90;;;;;;;1.41;65.52;102104.34;10311266;28;20133;-75
2022/03/18 04:28:32;;;;;;;14.50;6.50;;;;;;;1.33;65.75;102120.59;10294228;28;20141;-75
2022/03/18 04:33:34;;;;;;;21.10;7.13;;;;;;;1.31;65.36;102129.16;10310875;28;20054;-75
2022/03/18 04:38:36;;;;;;;20.05;8.70;;;;;;;1.19;65.40;102129.88;10309558;28;20133;-75
2022/03/18 04:43:43;;;;;;;18.83;8.23;;;;;;;1.15;65.63;102137.53;10310927;28;20085;-75
2022/03/18 04:48:45;;;;;;;16.45;6.97;;;;;;;1.10;65.61;102141.75;10309478;28;20089;-75
2022/03/18 04:53:47;;;;;;;16.15;7.50;;;;;;;1.10;65.69;102147.78;10308969;28;20635;-75
2022/03/18 04:58:49;;;;;;;15.30;7.03;;;;;;;1.02;65.92;102153.66;10304566;28;20062;-75
2022/03/18 05:03:50;;;;;;;20.48;7.75;;;;;;;0.93;66.04;102172.41;10291331;28;20431;-75
2022/03/18 05:08:52;;;;;;;16.85;7.57;;;;;;;0.86;66.19;102175.75;10312424;28;20070;-76
2022/03/18 05:14:03;;;;;;;13.70;7.18;;;;;;;0.83;66.54;102187.72;10291201;28;20100;-75
2022/03/18 05:19:05;;;;;;;21.10;7.55;;;;;;;0.85;66.18;102194.63;10307358;28;20140;-75
2022/03/18 05:24:07;;;;;;;26.20;8.35;;;;;;;0.82;65.77;102193.72;10308809;28;20054;-75
2022/03/18 05:29:09;;;;;;;18.40;7.38;;;;;;;0.80;66.04;102203.13;10292544;28;20112;-75
2022/03/18 05:34:11;;;;;;;179.07;10.93;;;;;;;0.76;65.93;102209.94;10307777;28;20633;-75
2022/03/18 05:39:13;;;;;;;25.58;7.38;;;;;;;0.69;66.51;102207.25;10306683;28;20053;-76
2022/03/18 05:44:15;;;;;;;14.00;6.45;;;;;;;0.77;66.52;102216.81;10288175;28;20050;-76
2022/03/18 05:49:18;;;;;;;189.48;12.38;;;;;;;0.75;66.14;102227.94;10308004;28;20078;-75
2022/03/18 05:54:20;;;;;;;42.90;8.25;;;;;;;0.61;66.75;102226.84;10289086;28;20125;-76
2022/03/18 05:59:24;;;;;;;29.48;7.15;;;;;;;0.72;66.40;102239.06;10290112;28;20062;-75
2022/03/18 06:04:27;;;;;;;16.15;7.35;;;;;;;0.77;66.12;102240.00;10305101;28;20121;-76
2022/03/18 06:14:51;;;;;;;15.13;8.60;;;;;;;0.90;66.02;102244.50;10306554;28;20120;-76
2022/03/18 06:19:53;;;;;;;18.65;9.55;;;;;;;0.94;65.85;102261.75;10288302;28;20042;-75
2022/03/18 06:24:55;;;;;;;17.30;9.45;;;;;;;1.00;65.63;102268.72;10306718;28;20153;-75
2022/03/18 06:29:56;;;;;;;14.65;9.23;;;;;;;1.07;65.68;102266.28;10288841;28;20053;-76
2022/03/18 06:34:58;;;;;;;19.30;10.27;;;;;;;1.14;65.25;102273.25;10288420;28;20137;-76
2022/03/18 06:40:00;;;;;;;20.85;10.48;;;;;;;1.15;64.94;102276.69;10305643;28;20120;-76
2022/03/18 06:45:02;;;;;;;19.77;9.32;;;;;;;1.24;65.01;102287.13;10289243;28;20133;-76
2022/03/18 06:50:04;;;;;;;15.13;8.43;;;;;;;1.34;64.71;102292.47;10305740;28;20081;-76
2022/03/18 06:55:07;;;;;;;17.80;9.40;;;;;;;1.41;64.58;102297.72;10306008;28;20152;-76
2022/03/18 07:00:09;;;;;;;17.00;8.15;;;;;;;1.50;64.36;102290.13;10305423;28;20988;-76
2022/03/18 07:05:12;;;;;;;18.25;8.95;;;;;;;1.56;64.04;102293.66;10305009;28;20109;-75
2022/03/18 07:10:14;;;;;;;15.68;8.40;;;;;;;1.38;64.62;102310.56;10305211;28;20145;-76
2022/03/18 07:15:17;;;;;;;16.45;8.10;;;;;;;1.47;65.20;102315.84;10304040;28;20479;-76
2022/03/18 07:20:19;;;;;;;15.48;8.48;;;;;;;1.80;64.72;102326.66;10285877;28;20587;-76
2022/03/18 07:25:22;;;;;;;16.60;8.43;;;;;;;2.04;64.23;102329.56;10304079;28;20117;-76
2022/03/18 07:30:24;;;;;;;16.55;8.52;;;;;;;2.33;63.90;102330.81;10304170;28;20189;-76
2022/03/18 07:35:26;;;;;;;16.75;10.95;;;;;;;2.20;63.96;102339.25;10303786;28;20176;-76
2022/03/18 07:40:29;;;;;;;15.65;6.95;;;;;;;2.10;64.45;102343.44;10286721;28;20136;-76
2022/03/18 07:45:32;;;;;;;19.77;7.00;;;;;;;2.74;63.30;102346.78;10305573;28;20161;-76
2022/03/18 07:50:35;;;;;;;14.55;7.05;;;;;;;3.29;62.85;102341.28;10286231;28;20085;-76
2022/03/18 07:55:38;;;;;;;13.45;6.50;;;;;;;3.70;62.36;102349.34;10304359;28;20057;-75
2022/03/18 08:00:40;;;;;;;14.15;7.60;;;;;;;3.98;62.20;102348.69;10288345;28;20137;-75
2022/03/18 08:05:42;;;;;;;18.75;6.10;;;;;;;4.68;60.99;102348.09;10304283;28;20058;-76
2022/03/18 08:10:44;;;;;;;14.60;6.25;;;;;;;5.63;59.70;102336.94;10308408;28;20058;-75
2022/03/18 08:15:51;;;;;;;18.27;5.75;;;;;;;6.46;57.94;102336.72;10294177;28;20132;-75
2022/03/18 08:20:53;;;;;;;18.60;4.70;;;;;;;6.98;55.74;102343.31;10311599;28;20066;-76
2022/03/18 08:25:55;;;;;;;11.20;3.38;;;;;;;7.40;53.18;102336.06;10293469;28;20133;-76
2022/03/18 08:30:56;;;;;;;14.52;3.90;;;;;;;7.39;52.04;102332.59;10311833;28;20149;-76
2022/03/18 08:35:58;;;;;;;13.05;4.47;;;;;;;7.43;51.97;102330.81;10310497;28;20050;-76
2022/03/18 08:41:00;;;;;;;11.77;4.72;;;;;;;7.48;50.89;102335.13;10310327;28;20137;-75
2022/03/18 08:46:02;;;;;;;12.68;4.30;;;;;;;7.76;50.14;102335.72;10310950;28;20046;-76
2022/03/18 08:51:04;;;;;;;11.65;3.83;;;;;;;7.77;49.70;102337.47;10292685;28;20054;-74
2022/03/18 08:56:06;;;;;;;14.70;4.00;;;;;;;7.88;49.09;102333.84;10309456;28;20165;-74
2022/03/18 09:01:07;;;;;;;8.23;3.42;;;;;;;8.10;48.57;102344.94;10310270;28;21086;-75
2022/03/18 09:06:11;;;;;;;15.15;3.60;;;;;;;8.44;47.44;102346.28;10291648;28;20488;-75
2022/03/18 09:11:13;;;;;;;9.27;3.30;;;;;;;8.62;46.72;102346.03;10309635;28;20058;-75
2022/03/18 09:16:15;;;;;;;13.05;4.07;;;;;;;8.99;46.59;102338.53;10292103;28;20145;-75
2022/03/18 09:21:34;;;;;;;8.95;3.10;;;;;;;9.11;45.79;102322.69;10308620;28;21117;-75
2022/03/18 09:26:37;;;;;;;8.15;3.08;;;;;;;9.42;45.55;102325.66;10308674;28;20145;-75
2022/03/18 09:31:42;;;;;;;10.32;2.97;;;;;;;9.79;45.02;102316.28;10291944;28;20155;-75
2022/03/18 09:36:44;;;;;;;8.88;2.67;;;;;;;9.79;41.66;102312.84;10307909;28;20422;-75
2022/03/18 09:41:46;;;;;;;6.97;2.50;;;;;;;10.03;41.52;102322.81;10291174;28;20118;-75
2022/03/18 09:46:50;;;;;;;7.55;2.53;;;;;;;10.36;41.26;102317.75;10307566;28;20133;-75
2022/03/18 09:51:51;;;;;;;11.27;2.60;;;;;;;10.34;39.00;102313.44;10290202;28;20191;-75
2022/03/18 09:56:54;;;;;;;8.27;2.60;;;;;;;10.52;38.08;102310.44;10290076;28;20058;-76
2022/03/18 10:02:41;;;;;;;7.95;2.67;;;;;;;10.38;35.77;102315.97;10290643;28;20942;-75
2022/03/18 10:07:54;;;;;;;6.25;2.65;;;;;;;10.39;35.27;102316.84;10304238;28;20050;-75
2022/03/18 10:13:00;;;;;;;7.50;2.65;;;;;;;10.14;34.58;102318.22;10307518;28;20090;-75
2022/03/18 10:18:02;;;;;;;7.35;2.63;;;;;;;9.97;35.24;102321.16;10306948;28;20054;-75
2022/03/18 10:23:16;;;;;;;7.50;2.58;;;;;;;10.38;36.32;102334.28;10300812;28;20046;-75
2022/03/18 10:28:51;;;;;;;10.15;3.10;;;;;;;10.47;34.14;102338.47;10306354;28;20137;-75
2022/03/18 10:39:34;;;;;;;7.40;2.60;;;;;;;10.83;33.72;102340.25;10305943;28;20149;-78
2022/03/18 10:44:53;;;;;;;10.20;2.28;;;;;;;10.96;31.32;102336.47;10305942;28;20473;-78
2022/03/18 10:50:11;;;;;;;8.35;2.45;;;;;;;10.66;31.59;102345.03;10306399;28;20137;-78
2022/03/18 10:55:24;;;;;;;6.43;2.15;;;;;;;10.70;32.43;102337.97;10302931;28;20124;-79
2022/03/18 11:00:32;;;;;;;6.55;2.28;;;;;;;10.81;32.24;102344.66;10303480;28;20072;-76
2022/03/18 11:05:38;;;;;;;7.13;2.45;;;;;;;10.66;33.25;102352.88;10303885;28;20489;-77
2022/03/18 11:16:09;;;;;;;8.40;2.33;;;;;;;10.58;32.71;102346.94;10298449;28;20047;-77
2022/03/18 11:21:13;;;;;;;6.55;2.30;;;;;;;10.83;33.02;102336.78;10283868;28;20860;-77
2022/03/18 11:26:18;;;;;;;9.77;2.45;;;;;;;10.96;33.11;102339.09;10298336;28;20137;-77
2022/03/18 11:31:20;;;;;;;7.28;2.20;;;;;;;10.90;31.60;102341.84;10299626;28;20046;-77
2022/03/18 11:36:21;;;;;;;5.45;2.10;;;;;;;11.05;31.67;102332.81;10298134;28;20146;-77
2022/03/18 11:41:46;;;;;;;5.90;1.95;;;;;;;11.27;30.00;102337.47;10299267;28;20108;-77
2022/03/18 11:46:48;;;;;;;6.43;1.90;;;;;;;11.37;29.84;102326.78;10291488;28;20058;-77
2022/03/18 11:52:00;;;;;;;8.82;2.10;;;;;;;11.43;28.57;102326.63;10309609;28;20090;-77
2022/03/18 11:57:05;;;;;;;6.75;2.00;;;;;;;11.69;30.69;102316.31;10313250;28;20246;-77
2022/03/18 12:02:09;;;;;;;5.72;1.88;;;;;;;11.65;29.00;102304.19;10312808;28;20085;-77
2022/03/18 12:07:12;;;;;;;6.13;1.90;;;;;;;11.66;28.68;102304.16;10311061;28;20046;-77
2022/03/18 12:12:41;;;;;;;5.63;1.60;;;;;;;11.95;27.70;102300.75;10293751;28;20050;-77
2022/03/18 12:17:52;;;;;;;10.18;2.83;;;;;;;11.96;25.66;102305.97;10300095;28;20756;-77
2022/03/18 12:22:54;;;;;;;4.40;1.60;;;;;;;12.15;26.14;102298.41;10311450;28;20141;-78
2022/03/18 12:27:56;;;;;;;4.50;1.52;;;;;;;12.38;26.58;102300.41;10312125;28;20145;-78
2022/03/18 12:33:00;;;;;;;5.20;1.40;;;;;;;12.43;25.68;102293.25;10306853;28;20157;-77
2022/03/18 12:38:06;;;;;;;5.65;1.73;;;;;;;12.65;25.39;102284.69;10309101;28;20137;-78
2022/03/18 12:43:08;;;;;;;3.30;1.65;;;;;;;12.66;26.48;102278.50;10309329;28;20054;-78
2022/03/18 12:48:13;;;;;;;4.80;1.60;;;;;;;12.63;25.87;102273.38;10310255;28;20145;-78
2022/03/18 12:53:18;;;;;;;4.18;1.60;;;;;;;12.67;23.79;102272.38;10287360;28;20054;-78
2022/03/18 12:58:22;;;;;;;3.90;1.58;;;;;;;12.79;23.85;102274.59;10281182;28;20615;-78
2022/03/18 13:03:26;;;;;;;3.50;1.38;;;;;;;12.83;23.23;102268.34;10305974;28;20078;-77
2022/03/18 13:08:33;;;;;;;2.95;1.40;;;;;;;12.89;22.06;102268.16;10309360;28;20161;-76
2022/03/18 13:13:43;;;;;;;3.88;1.50;;;;;;;13.09;23.07;102256.16;10288513;28;20047;-77
2022/03/18 13:18:50;;;;;;;3.97;1.55;;;;;;;12.97;21.38;102267.91;10307083;28;20060;-78
2022/03/18 13:23:54;;;;;;;3.95;1.30;;;;;;;12.95;20.75;102252.19;10301349;28;20958;-77
2022/03/18 13:28:56;;;;;;;1.92;1.15;;;;;;;12.88;19.86;102261.16;10290696;28;20050;-77
2022/03/18 13:33:58;;;;;;;2.33;1.30;;;;;;;12.89;19.68;102262.91;10307199;28;20046;-77
2022/03/18 13:39:05;;;;;;;4.05;1.20;;;;;;;12.98;21.00;102243.34;10303061;28;20101;-77
2022/03/18 13:44:07;;;;;;;2.42;1.20;;;;;;;12.90;20.70;102248.84;10297561;28;20451;-76
2022/03/18 13:49:15;;;;;;;2.75;1.20;;;;;;;13.09;20.30;102248.25;10298690;28;20524;-77
2022/03/18 13:54:20;;;;;;;4.50;1.45;;;;;;;12.97;19.79;102241.63;10306930;28;20061;-77
2022/03/18 13:59:22;;;;;;;4.85;1.40;;;;;;;13.06;20.21;102229.97;10292193;28;20693;-78
2022/03/18 14:04:25;;;;;;;3.03;1.38;;;;;;;13.21;19.90;102232.09;10289471;28;20046;-78
2022/03/18 14:09:27;;;;;;;3.70;1.35;;;;;;;13.16;19.11;102226.97;10287742;28;20174;-78
2022/03/18 14:14:29;;;;;;;2.40;1.30;;;;;;;13.00;18.19;102238.03;10306402;28;20464;-78
2022/03/18 14:19:49;;;;;;;6.03;1.35;;;;;;;13.08;18.96;102229.00;10306373;28;20133;-78
2022/03/18 14:24:51;;;;;;;2.20;1.30;;;;;;;13.26;20.97;102220.50;10300982;28;20575;-78
2022/03/18 14:29:53;;;;;;;3.65;1.40;;;;;;;13.24;19.92;102227.56;10301711;28;20530;-78
2022/03/18 14:34:55;;;;;;;2.90;1.30;;;;;;;13.20;19.66;102222.47;10286619;28;20046;-77
2022/03/18 14:39:58;;;;;;;3.13;1.33;;;;;;;13.20;19.55;102220.69;10285467;28;20064;-78
2022/03/18 14:45:01;;;;;;;4.85;2.28;;;;;;;13.18;19.38;102217.28;10304110;28;20056;-79
2022/03/18 14:50:05;;;;;;;4.93;1.80;;;;;;;13.33;21.14;102218.50;10303282;28;20078;-77
2022/03/18 15:00:31;;;;;;;5.70;1.75;;;;;;;13.50;21.33;102208.28;10300413;28;20058;-77
2022/03/18 15:05:33;;;;;;;5.80;1.80;;;;;;;13.41;21.11;102203.31;10300129;28;20050;-78
2022/03/18 15:10:35;;;;;;;4.35;1.60;;;;;;;13.47;21.07;102206.63;10276472;28;20248;-78
2022/03/18 15:15:43;;;;;;;6.25;1.70;;;;;;;13.46;21.82;102197.03;10298781;28;20104;-78
2022/03/18 15:20:49;;;;;;;4.28;1.63;;;;;;;13.40;21.54;102198.97;10303282;28;20057;-79
2022/03/18 15:25:55;;;;;;;5.60;1.58;;;;;;;13.38;21.35;102204.28;10282496;28;20335;-78
2022/03/18 15:30:57;;;;;;;4.38;1.80;;;;;;;13.22;21.77;102199.63;10310388;28;20416;-78
2022/03/18 15:36:00;;;;;;;5.05;1.67;;;;;;;13.20;21.82;102207.56;10312163;28;20106;-77
2022/03/18 15:41:02;;;;;;;3.47;1.60;;;;;;;13.18;22.38;102203.25;10312881;28;20085;-77
2022/03/18 15:46:07;;;;;;;3.80;1.60;;;;;;;13.13;22.00;102211.31;10314728;28;20054;-78
2022/03/18 15:51:09;;;;;;;10.57;2.00;;;;;;;13.07;22.29;102201.00;10293999;28;20054;-78
2022/03/18 15:56:11;;;;;;;3.53;1.80;;;;;;;13.16;22.94;102208.59;10296180;28;20101;-78
2022/03/18 16:01:14;;;;;;;4.28;1.70;;;;;;;12.96;22.12;102221.53;10311602;28;20180;-77
2022/03/18 16:06:16;;;;;;;3.47;1.65;;;;;;;12.86;22.51;102220.13;10293765;28;20054;-77
2022/03/18 16:11:19;;;;;;;3.83;1.80;;;;;;;12.95;23.80;102222.44;10308706;28;20065;-77
2022/03/18 16:16:21;;;;;;;4.35;1.70;;;;;;;12.67;23.40;102230.38;10295172;28;20181;-77
2022/03/18 16:21:25;;;;;;;4.05;1.50;;;;;;;12.52;23.60;102233.47;10309918;28;20129;-78
2022/03/18 16:26:27;;;;;;;4.57;1.60;;;;;;;12.43;24.39;102236.38;10310581;28;20133;-77
2022/03/18 16:31:29;;;;;;;3.90;1.65;;;;;;;12.38;24.28;102240.03;10292162;28;20054;-77
2022/03/18 16:36:32;;;;;;;5.35;1.90;;;;;;;12.39;24.87;102254.91;10308382;28;20143;-77
2022/03/18 16:41:34;;;;;;;5.70;1.73;;;;;;;12.14;24.65;102257.34;10303900;28;20066;-77
2022/03/18 16:51:59;;;;;;;7.55;1.73;;;;;;;11.89;24.92;102261.56;10309684;28;20104;-77
2022/03/18 16:57:01;;;;;;;5.15;2.10;;;;;;;11.90;25.57;102258.94;10309085;28;20137;-78
2022/03/18 17:02:09;;;;;;;6.35;1.90;;;;;;;11.66;25.08;102256.13;10315632;28;20050;-78
2022/03/18 17:07:12;;;;;;;4.75;1.92;;;;;;;11.61;25.84;102255.38;10277642;28;20050;-76
2022/03/18 17:12:15;;;;;;;5.18;1.70;;;;;;;11.41;26.63;102252.44;10290448;28;20062;-77
2022/03/18 17:17:16;;;;;;;4.32;1.88;;;;;;;11.24;26.46;102259.00;10279594;28;20061;-77
2022/03/18 17:22:18;;;;;;;6.25;2.10;;;;;;;11.10;26.55;102266.34;10256632;28;20054;-77
2022/03/18 17:27:20;;;;;;;4.65;1.63;;;;;;;10.64;26.64;102280.53;10285254;28;20114;-76
2022/03/18 17:32:22;;;;;;;4.85;1.70;;;;;;;10.65;27.01;102283.09;10274981;28;20061;-77
2022/03/18 17:37:24;;;;;;;4.85;2.00;;;;;;;10.54;28.02;102279.00;10283694;28;20054;-77
2022/03/18 17:42:25;;;;;;;5.95;2.03;;;;;;;10.46;27.63;102293.09;10282373;28;20078;-77
2022/03/18 17:47:27;;;;;;;4.10;1.80;;;;;;;10.40;28.07;102302.84;10280434;28;20050;-77
2022/03/18 17:52:29;;;;;;;6.78;2.13;;;;;;;10.19;28.56;102300.69;10281483;28;20460;-77
2022/03/18 17:57:31;;;;;;;4.90;2.10;;;;;;;10.00;28.80;102312.41;10292602;28;20153;-77
2022/03/18 18:02:34;;;;;;;6.13;2.13;;;;;;;9.78;29.45;102317.19;10305330;28;20572;-77
2022/03/18 18:07:36;;;;;;;5.22;2.40;;;;;;;9.72;29.74;102334.72;10305516;28;20052;-78
2022/03/18 18:12:38;;;;;;;5.13;2.45;;;;;;;9.58;30.56;102345.41;10306051;28;20492;-78
2022/03/18 18:17:40;;;;;;;8.88;2.70;;;;;;;9.37;30.77;102346.63;10300046;28;21410;-78
2022/03/18 18:22:42;;;;;;;4.35;2.38;;;;;;;9.27;30.94;102345.06;10307212;28;20089;-77
2022/03/18 18:27:43;;;;;;;5.25;2.40;;;;;;;9.28;30.93;102345.94;10306362;28;20072;-77
2022/03/18 18:32:45;;;;;;;4.85;2.80;;;;;;;9.15;31.59;102350.47;10306128;28;20109;-77
2022/03/18 18:37:47;;;;;;;5.70;2.53;;;;;;;9.12;31.12;102345.28;10303650;28;20165;-77
2022/03/18 18:42:49;;;;;;;5.88;2.20;;;;;;;9.06;30.88;102344.50;10304709;28;20509;-77
2022/03/18 18:47:51;;;;;;;4.80;2.35;;;;;;;9.12;31.02;102342.66;10287760;28;20062;-77
2022/03/18 18:52:53;;;;;;;4.57;1.92;;;;;;;9.09;31.60;102350.56;10287318;28;20137;-77
2022/03/18 18:57:55;;;;;;;4.00;2.13;;;;;;;8.92;32.80;102351.69;10287347;28;20046;-77
2022/03/18 19:02:58;;;;;;;4.97;2.20;;;;;;;8.74;33.42;102352.81;10304884;28;20482;-77
2022/03/18 19:08:04;;;;;;;5.28;1.90;;;;;;;8.61;33.48;102351.25;10306974;28;20049;-77
2022/03/18 19:13:06;;;;;;;4.53;1.92;;;;;;;8.54;33.58;102350.50;10303266;28;20054;-76
2022/03/18 19:18:07;;;;;;;4.82;2.20;;;;;;;8.38;33.97;102359.38;10288216;28;20132;-77
2022/03/18 19:23:10;;;;;;;4.45;1.88;;;;;;;8.33;34.27;102366.38;10301926;28;20058;-77
2022/03/18 19:28:12;;;;;;;5.07;2.03;;;;;;;8.24;34.40;102368.25;10285324;28;20050;-77
2022/03/18 19:33:14;;;;;;;7.28;2.20;;;;;;;8.14;34.67;102375.28;10303575;28;20082;-74
2022/03/18 19:38:16;;;;;;;5.57;2.63;;;;;;;8.04;35.23;102369.28;10304695;28;20193;-74
2022/03/18 19:43:17;;;;;;;4.65;2.45;;;;;;;8.01;35.71;102373.69;10304691;28;20162;-74
2022/03/18 19:48:19;;;;;;;5.47;2.35;;;;;;;7.94;36.15;102385.91;10303353;28;20145;-74
2022/03/18 19:53:22;;;;;;;7.05;2.53;;;;;;;7.87;36.02;102397.28;10286041;28;20125;-74
2022/03/18 20:03:44;;;;;;;5.50;2.80;;;;;;;7.73;36.87;102400.88;10301399;28;20060;-74
2022/03/18 20:08:46;;;;;;;5.43;2.80;;;;;;;7.57;37.58;102396.69;10311066;28;21005;-74
2022/03/18 20:13:48;;;;;;;6.18;2.80;;;;;;;7.56;37.53;102411.44;10294563;28;20401;-74
2022/03/18 20:18:50;;;;;;;5.93;2.65;;;;;;;7.48;38.09;102409.78;10311932;28;20130;-74
2022/03/18 20:23:52;;;;;;;7.45;3.13;;;;;;;7.39;38.15;102417.63;10309959;28;20558;-74
2022/03/18 20:29:11;;;;;;;6.53;2.60;;;;;;;7.27;39.33;102421.19;10311288;28;20145;-74
2022/03/18 20:34:12;;;;;;;6.15;2.60;;;;;;;7.16;39.68;102434.28;10310821;28;20155;-74
2022/03/18 20:39:14;;;;;;;7.57;2.70;;;;;;;7.13;39.91;102431.69;10293560;28;20160;-74
2022/03/18 20:44:17;;;;;;;6.00;2.75;;;;;;;7.16;40.19;102436.03;10308468;28;20486;-74
2022/03/18 20:49:19;;;;;;;7.50;2.78;;;;;;;7.15;40.19;102434.28;10310678;28;20460;-74
2022/03/18 20:54:21;;;;;;;8.20;3.00;;;;;;;7.08;40.38;102435.22;10308175;28;20302;-74
2022/03/18 20:59:23;;;;;;;6.72;3.00;;;;;;;6.96;40.89;102453.47;10290505;28;20137;-73
2022/03/18 21:04:24;;;;;;;7.05;2.70;;;;;;;6.84;41.11;102458.72;10291374;28;20046;-73
2022/03/18 21:09:26;;;;;;;6.38;3.15;;;;;;;6.93;41.33;102463.91;10292055;28;20062;-73
2022/03/18 21:14:28;;;;;;;10.43;3.88;;;;;;;6.89;41.16;102467.38;10309329;28;20145;-74
2022/03/18 21:19:30;;;;;;;8.18;3.85;;;;;;;6.84;41.49;102464.81;10307861;28;20145;-74
2022/03/18 21:24:33;;;;;;;9.23;3.88;;;;;;;6.81;41.90;102476.97;10307870;28;20761;-74
2022/03/18 21:34:55;;;;;;;7.88;3.47;;;;;;;6.65;42.53;102475.28;10307378;28;20050;-74
2022/03/18 21:39:57;;;;;;;7.55;3.30;;;;;;;6.64;43.00;102476.16;10308274;28;20054;-74
2022/03/18 21:44:59;;;;;;;8.85;3.15;;;;;;;6.59;43.49;102480.50;10290269;28;20148;-74
2022/03/18 21:50:01;;;;;;;7.03;3.08;;;;;;;6.50;43.93;102483.13;10307075;28;20133;-73
2022/03/18 21:55:05;;;;;;;9.73;3.33;;;;;;;6.45;44.49;102482.28;10290547;28;20140;-74
2022/03/18 22:00:08;;;;;;;8.82;3.00;;;;;;;6.37;45.37;102482.28;10307153;28;20145;-74
2022/03/18 22:05:10;;;;;;;6.43;3.22;;;;;;;6.27;45.51;102486.63;10305170;28;20131;-74
2022/03/18 22:10:12;;;;;;;13.13;3.35;;;;;;;6.25;45.12;102488.38;10289025;28;20094;-74
2022/03/18 22:15:14;;;;;;;6.70;3.65;;;;;;;6.22;45.25;102488.38;10298125;28;20133;-74
2022/03/18 22:20:16;;;;;;;8.27;3.83;;;;;;;6.21;44.82;102491.81;10305576;28;20133;-74
2022/03/18 22:25:18;;;;;;;7.65;3.97;;;;;;;6.14;44.71;102492.66;10289072;28;20050;-74
2022/03/18 22:30:21;;;;;;;11.00;4.13;;;;;;;6.13;44.95;102488.34;10305570;28;20065;-74
2022/03/18 22:35:24;;;;;;;7.75;3.65;;;;;;;6.13;44.83;102482.28;10287434;28;20484;-74
2022/03/18 22:40:26;;;;;;;8.57;3.65;;;;;;;6.07;44.90;102483.16;10305905;28;20061;-74
2022/03/18 22:45:28;;;;;;;6.70;3.58;;;;;;;5.98;44.91;102482.31;10304814;28;20165;-74
2022/03/18 22:50:30;;;;;;;7.18;3.60;;;;;;;5.85;45.20;102481.44;10304796;28;20065;-75
2022/03/18 22:55:32;;;;;;;9.23;4.00;;;;;;;5.83;45.31;102484.91;10305751;28;20054;-74
2022/03/18 23:00:34;;;;;;;7.50;3.50;;;;;;;5.78;46.13;102484.91;10312342;28;20058;-75
2022/03/18 23:05:37;;;;;;;11.43;3.83;;;;;;;5.69;45.69;102481.44;10325382;28;20050;-75
2022/03/18 23:15:59;;;;;;;9.70;3.58;;;;;;;5.42;46.27;102477.06;10305220;28;20142;-75
2022/03/18 23:21:00;;;;;;;10.38;4.20;;;;;;;5.40;46.27;102473.63;10306005;28;20050;-76
2022/03/18 23:26:02;;;;;;;10.23;4.32;;;;;;;5.34;46.74;102479.66;10305040;28;20141;-75
2022/03/18 23:31:05;;;;;;;8.27;3.72;;;;;;;5.37;46.80;102478.81;10304217;28;20050;-75
2022/03/18 23:36:08;;;;;;;10.43;4.32;;;;;;;5.31;47.40;102484.84;10287148;28;20046;-75
2022/03/18 23:41:09;;;;;;;10.25;4.10;;;;;;;5.23;47.58;102483.06;10290726;28;20164;-75
2022/03/18 23:46:12;;;;;;;14.00;4.28;;;;;;;5.12;48.10;102480.47;10311646;28;20453;-75
2022/03/18 23:51:15;;;;;;;9.07;4.30;;;;;;;5.04;48.04;102477.00;10302943;28;20137;-76
2022/03/18 23:56:17;;;;;;;10.75;4.13;;;;;;;5.00;48.17;102484.75;10312796;28;20057;-75
